Malaysia Virtual Airlines Airport Information Service

Subang/Sultan Abdul Aziz Shah Airport

ICAO: WMSA Country: Malaysia
Latitude: 3.13056 Longitude: 101.549
Latest Arrival : THJUMP (VIDP-WMSA) Latest Departure : TH382 (WMSA-WSSS)


WX CaptureLIVE
Data provided by noaa.gov | Fetched at 07:05:10

METAR : WMSA 160600Z 34006KT 300V010 2000 TSRA FEW016CB 24/23 Q1011

TAF : WMSA 160500Z 1606/1706 32006KT 9000 FEW017CB TEMPO 1606/1611 25010KT 3000 TSRA FEW016CB SCT018


Runway Data for WMSA
Data provided by openaviationdata.com

Runway ID Mag Var Hdg Length Elevation Surface ILS Freq ILS Id ILS Slope
15 0 149° 12445 ft 89 ft Asphalt 110.3 ISB 3
33 0 329° 12445 ft 89 ft Asphalt 109.9 IKL 3

Subang/Sultan Abdul Aziz Shah Airport, Malaysia
Use only for reference purposes



Not for navigational purposes.